createdAt,value
2019-03-25T00:02:43.341Z,101863.87
2019-03-25T00:06:49.678Z,101855.50
2019-03-25T00:10:55.934Z,101850.93
2019-03-25T00:15:02.484Z,101853.96
2019-03-25T00:19:08.668Z,101840.86
2019-03-25T00:23:14.995Z,101828.09
2019-03-25T00:27:21.358Z,101824.91
2019-03-25T00:31:27.731Z,101818.25
2019-03-25T00:35:34.031Z,101810.36
2019-03-25T00:39:40.297Z,101800.58
2019-03-25T00:43:46.505Z,101800.88
2019-03-25T00:47:52.806Z,101797.81
2019-03-25T00:51:59.098Z,101782.57
2019-03-25T00:56:05.405Z,101771.75
2019-03-25T01:00:12.822Z,101763.36
2019-03-25T01:04:21.204Z,101759.08
2019-03-25T01:08:27.494Z,101754.75
2019-03-25T01:12:33.803Z,101749.74
2019-03-25T01:16:40.412Z,101745.66
2019-03-25T01:20:46.757Z,101745.02
2019-03-25T01:25:01.241Z,101736.94
2019-03-25T01:29:01.281Z,101736.42
2019-03-25T01:33:07.658Z,101725.53
2019-03-25T01:37:13.828Z,101718.91
2019-03-25T01:41:20.115Z,101710.94
2019-03-25T01:45:26.389Z,101707.42
2019-03-25T01:49:32.591Z,101709.16
2019-03-25T01:53:38.843Z,101697.80
2019-03-25T01:57:45.142Z,101699.16
2019-03-25T02:01:51.400Z,101686.35
2019-03-25T02:05:57.631Z,101691.26
2019-03-25T02:10:04.188Z,101684.70
2019-03-25T02:14:10.759Z,101678.02
2019-03-25T02:18:17.366Z,101668.27
2019-03-25T02:22:23.716Z,101661.50
2019-03-25T02:26:30.017Z,101661.44
2019-03-25T02:30:36.324Z,101652.66
2019-03-25T02:34:42.630Z,101648.92
2019-03-25T02:38:57.675Z,101639.75
2019-03-25T02:43:03.961Z,101629.09
2019-03-25T02:47:10.260Z,101631.77
2019-03-25T02:51:16.530Z,101623.02
2019-03-25T02:55:23.305Z,101621.96
2019-03-25T02:59:29.511Z,101619.97
2019-03-25T03:03:35.723Z,101611.81
2019-03-25T03:07:42.055Z,101596.14
2019-03-25T03:11:48.674Z,101590.05
2019-03-25T03:15:54.983Z,101581.81
2019-03-25T03:20:01.179Z,101591.80
2019-03-25T03:24:07.422Z,101592.77
2019-03-25T03:28:13.691Z,101591.42
2019-03-25T03:32:19.939Z,101581.11
2019-03-25T03:36:26.240Z,101582.89
2019-03-25T03:40:32.518Z,101579.97
2019-03-25T03:44:38.813Z,101579.91
2019-03-25T03:48:45.100Z,101585.69
2019-03-25T03:52:51.394Z,101590.73
2019-03-25T03:56:58.062Z,101582.56
2019-03-25T04:01:04.624Z,101596.03
2019-03-25T04:05:10.906Z,101599.16
2019-03-25T04:09:17.184Z,101580.22
2019-03-25T04:13:23.570Z,101590.58
2019-03-25T04:17:30.167Z,101594.02
2019-03-25T04:21:36.462Z,101580.44
2019-03-25T04:25:42.713Z,101585.63
2019-03-25T04:29:48.907Z,101600.45
2019-03-25T04:33:55.205Z,101609.59
2019-03-25T04:38:01.328Z,101606.17
2019-03-25T04:42:07.608Z,101602.55
2019-03-25T04:46:13.903Z,101600.09
2019-03-25T04:50:20.255Z,101606.00
2019-03-25T04:54:26.893Z,101600.34
2019-03-25T04:58:33.177Z,101596.62
2019-03-25T05:02:39.456Z,101591.72
2019-03-25T05:06:45.669Z,101597.62
2019-03-25T05:10:51.966Z,101605.56
2019-03-25T05:14:58.827Z,101594.16
2019-03-25T05:19:05.444Z,101600.89
2019-03-25T05:23:12.713Z,101603.84
2019-03-25T05:27:19.055Z,101609.02
2019-03-25T05:31:25.211Z,101625.67
2019-03-25T05:35:31.565Z,101621.20
2019-03-25T05:39:37.899Z,101629.08
2019-03-25T05:43:44.281Z,101627.30
2019-03-25T05:47:50.495Z,101633.33
2019-03-25T05:51:57.747Z,101631.04
2019-03-25T05:56:05.287Z,101634.89
2019-03-25T06:00:12.352Z,101626.56
2019-03-25T06:04:18.690Z,101629.59
2019-03-25T06:08:26.275Z,101629.75
2019-03-25T06:12:32.609Z,101626.93
2019-03-25T06:16:40.120Z,101625.56
2019-03-25T06:21:02.434Z,101630.11
2019-03-25T06:25:09.406Z,101628.45
2019-03-25T06:29:15.776Z,101631.33
2019-03-25T06:33:22.424Z,101637.59
2019-03-25T06:37:29.064Z,101643.00
2019-03-25T06:41:35.427Z,101645.00
2019-03-25T06:45:44.566Z,101635.52
2019-03-25T06:49:51.432Z,101639.51
2019-03-25T06:53:58.152Z,101642.66
2019-03-25T06:58:06.153Z,101642.05
2019-03-25T07:02:12.621Z,101646.02
2019-03-25T07:06:19.224Z,101649.52
2019-03-25T07:10:36.809Z,101658.55
2019-03-25T07:14:44.346Z,101643.29
2019-03-25T07:18:51.162Z,101655.02
2019-03-25T07:23:02.858Z,101644.88
2019-03-25T07:27:16.664Z,101640.67
2019-03-25T07:31:23.388Z,101634.00
2019-03-25T07:35:29.783Z,101644.06
2019-03-25T07:39:38.059Z,101629.03
2019-03-25T07:44:18.544Z,101627.42
2019-03-25T07:49:48.691Z,101637.70
2019-03-25T07:54:00.797Z,101630.36
2019-03-25T07:59:17.561Z,101636.50
2019-03-25T08:03:24.147Z,101630.73
2019-03-25T08:07:31.530Z,101645.22
2019-03-25T08:11:37.800Z,101655.99
2019-03-25T08:15:44.131Z,101657.05
2019-03-25T08:19:50.393Z,101657.78
2019-03-25T08:23:56.941Z,101665.34
2019-03-25T08:28:12.343Z,101668.77
2019-03-25T08:32:18.643Z,101657.36
2019-03-25T08:36:25.043Z,101645.27
2019-03-25T08:40:31.339Z,101658.16
2019-03-25T08:44:37.772Z,101681.17
2019-03-25T08:48:44.075Z,101691.13
2019-03-25T08:52:56.290Z,101705.69
2019-03-25T08:57:02.628Z,101703.82
2019-03-25T09:01:08.961Z,101712.67
2019-03-25T09:05:15.475Z,101717.66
2019-03-25T09:09:21.698Z,101729.52
2019-03-25T09:13:29.113Z,101715.15
2019-03-25T09:17:35.496Z,101729.81
2019-03-25T09:21:42.142Z,101720.64
2019-03-25T09:25:48.410Z,101721.96
2019-03-25T09:30:57.107Z,101720.89
2019-03-25T09:35:03.542Z,101727.59
2019-03-25T09:39:09.856Z,101733.77
2019-03-25T09:43:16.285Z,101737.21
2019-03-25T09:47:22.596Z,101737.20
2019-03-25T09:51:28.912Z,101739.59
2019-03-25T09:55:35.385Z,101731.26
2019-03-25T09:59:41.673Z,101742.52
2019-03-25T10:03:48.019Z,101738.50
2019-03-25T10:07:54.315Z,101752.13
2019-03-25T10:12:00.759Z,101770.80
2019-03-25T10:16:07.588Z,101789.31
2019-03-25T10:20:14.001Z,101810.87
2019-03-25T10:24:27.418Z,101804.28
2019-03-25T10:28:28.251Z,101803.95
2019-03-25T10:32:34.456Z,101804.05
2019-03-25T10:36:40.710Z,101802.27
2019-03-25T10:40:47.001Z,101818.50
2019-03-25T10:44:53.452Z,101799.34
2019-03-25T10:48:59.702Z,101802.76
2019-03-25T10:53:07.197Z,101797.69
2019-03-25T10:57:13.591Z,101792.39
2019-03-25T11:01:19.958Z,101778.27
2019-03-25T11:05:26.296Z,101766.38
2019-03-25T11:09:32.687Z,101778.27
2019-03-25T11:13:39.015Z,101784.19
2019-03-25T11:17:45.304Z,101803.45
2019-03-25T11:21:52.637Z,101859.91
2019-03-25T11:26:00.394Z,101841.13
2019-03-25T11:30:09.248Z,101829.19
2019-03-25T11:34:15.926Z,101817.87
2019-03-25T11:38:22.263Z,101810.08
2019-03-25T11:42:28.809Z,101820.35
2019-03-25T11:46:35.432Z,101830.34
2019-03-25T11:50:41.969Z,101828.05
2019-03-25T11:54:48.266Z,101835.14
2019-03-25T11:58:54.546Z,101836.44
2019-03-25T12:03:00.949Z,101839.30
2019-03-25T12:07:07.324Z,101831.95
2019-03-25T12:11:13.589Z,101824.40
2019-03-25T12:15:19.864Z,101829.64
2019-03-25T12:19:26.204Z,101830.27
2019-03-25T12:23:33.481Z,101830.42
2019-03-25T12:27:39.754Z,101871.45
2019-03-25T12:31:46.150Z,101860.15
2019-03-25T12:35:52.734Z,101846.51
2019-03-25T12:39:59.139Z,101845.54
2019-03-25T12:44:05.718Z,101845.95
2019-03-25T12:48:17.951Z,101846.30
2019-03-25T12:52:24.239Z,101854.41
2019-03-25T12:56:30.546Z,101856.81
2019-03-25T13:00:43.411Z,101847.24
2019-03-25T13:04:51.073Z,101830.52
2019-03-25T13:09:00.043Z,101829.16
2019-03-25T13:13:14.166Z,101842.91
2019-03-25T13:17:20.543Z,101825.08
2019-03-25T13:22:25.729Z,101821.05
2019-03-25T13:26:34.222Z,101828.23
2019-03-25T13:30:43.536Z,101795.99
2019-03-25T13:34:54.714Z,101792.22
2019-03-25T13:39:09.376Z,101775.80
2019-03-25T13:43:16.143Z,101775.31
2019-03-25T13:47:23.851Z,101785.31
2019-03-25T13:51:30.184Z,101786.42
2019-03-25T13:55:37.080Z,101794.08
2019-03-25T13:59:43.488Z,101791.32
2019-03-25T14:03:49.698Z,101790.64
2019-03-25T14:07:56.038Z,101788.77
2019-03-25T14:12:02.471Z,101809.88
2019-03-25T14:16:08.974Z,101807.77
2019-03-25T14:20:17.317Z,101818.05
2019-03-25T14:24:23.824Z,101841.09
2019-03-25T14:28:42.314Z,101837.16
2019-03-25T14:32:48.542Z,101835.84
2019-03-25T14:36:54.901Z,101820.84
2019-03-25T14:41:01.217Z,101825.90
2019-03-25T14:45:09.562Z,101835.13
2019-03-25T14:49:15.828Z,101829.02
2019-03-25T14:53:22.696Z,101815.33
2019-03-25T14:57:29.014Z,101826.45
2019-03-25T15:01:35.527Z,101831.64
2019-03-25T15:05:41.832Z,101832.09
2019-03-25T15:09:48.323Z,101829.50
2019-03-25T15:13:54.681Z,101830.73
2019-03-25T15:18:00.954Z,101839.98
2019-03-25T15:22:07.212Z,101851.45
2019-03-25T15:26:13.504Z,101868.48
2019-03-25T15:30:20.781Z,101875.10
2019-03-25T15:34:26.987Z,101898.29
2019-03-25T15:38:33.670Z,101888.23
2019-03-25T15:42:40.761Z,101892.26
2019-03-25T15:46:55.287Z,101898.61
2019-03-25T15:50:54.940Z,101912.21
2019-03-25T15:55:01.329Z,101906.38
2019-03-25T15:59:07.701Z,101913.16
2019-03-25T16:03:14.004Z,101923.27
2019-03-25T16:07:39.303Z,101916.98
2019-03-25T16:11:45.607Z,101938.77
2019-03-25T16:15:51.927Z,101940.88
2019-03-25T16:19:58.221Z,101946.38
2019-03-25T16:24:04.500Z,101955.64
2019-03-25T16:28:15.648Z,101974.05
2019-03-25T16:32:20.885Z,101977.45
2019-03-25T16:36:27.277Z,101989.83
2019-03-25T16:40:33.617Z,101996.70
2019-03-25T16:44:40.900Z,102012.83
2019-03-25T16:48:47.216Z,102015.03
2019-03-25T16:52:53.513Z,102026.48
2019-03-25T16:56:59.904Z,102033.69
2019-03-25T17:01:15.535Z,102044.15
2019-03-25T17:05:21.814Z,102055.30
2019-03-25T17:09:28.138Z,102052.77
2019-03-25T17:13:34.887Z,102057.05
2019-03-25T17:17:41.163Z,102067.16
2019-03-25T17:21:57.737Z,102071.95
2019-03-25T17:25:55.904Z,102085.84
2019-03-25T17:30:02.157Z,102096.84
2019-03-25T17:34:08.458Z,102100.59
2019-03-25T17:38:14.906Z,102105.09
2019-03-25T17:42:21.211Z,102115.72
2019-03-25T17:46:27.560Z,102123.91
2019-03-25T17:50:33.969Z,102132.73
2019-03-25T17:54:41.623Z,102138.87
2019-03-25T17:58:51.109Z,102150.03
2019-03-25T18:02:57.469Z,102160.77
2019-03-25T18:07:03.847Z,102166.79
2019-03-25T18:11:10.478Z,102178.94
2019-03-25T18:15:17.074Z,102181.65
2019-03-25T18:19:25.491Z,102200.30
2019-03-25T18:23:31.643Z,102195.96
2019-03-25T18:27:38.215Z,102209.59
2019-03-25T18:31:45.637Z,102216.69
2019-03-25T18:35:51.965Z,102218.06
2019-03-25T18:39:58.125Z,102223.34
2019-03-25T18:44:06.809Z,102234.75
2019-03-25T18:48:13.143Z,102236.56
2019-03-25T18:52:19.673Z,102241.65
2019-03-25T18:56:25.985Z,102238.48
2019-03-25T19:00:36.082Z,102254.98
2019-03-25T19:04:42.435Z,102258.95
2019-03-25T19:08:49.410Z,102255.78
2019-03-25T19:12:56.666Z,102259.62
2019-03-25T19:17:05.523Z,102272.05
2019-03-25T19:21:11.997Z,102282.90
2019-03-25T19:25:19.303Z,102295.28
2019-03-25T19:29:25.906Z,102296.23
2019-03-25T19:33:32.248Z,102294.29
2019-03-25T19:37:38.580Z,102304.99
2019-03-25T19:41:44.850Z,102308.45
2019-03-25T19:45:52.359Z,102302.45
2019-03-25T19:49:59.076Z,102317.22
2019-03-25T19:54:05.580Z,102320.83
2019-03-25T19:58:13.475Z,102331.52
2019-03-25T20:02:19.976Z,102345.24
2019-03-25T20:06:26.723Z,102351.44
2019-03-25T20:10:35.458Z,102357.32
2019-03-25T20:14:41.998Z,102358.82
2019-03-25T20:18:48.471Z,102367.47
2019-03-25T20:22:55.000Z,102375.30
2019-03-25T20:27:01.443Z,102383.67
2019-03-25T20:31:07.962Z,102389.58
2019-03-25T20:35:16.668Z,102389.19
2019-03-25T20:39:23.281Z,102399.54
2019-03-25T20:43:32.973Z,102402.34
2019-03-25T20:47:39.639Z,102408.98
2019-03-25T20:51:46.066Z,102411.48
2019-03-25T20:55:52.593Z,102415.80
2019-03-25T21:00:02.274Z,102429.30
2019-03-25T21:04:08.825Z,102427.75
2019-03-25T21:08:17.222Z,102430.49
2019-03-25T21:12:25.901Z,102444.22
2019-03-25T21:16:33.954Z,102451.22
2019-03-25T21:20:40.401Z,102456.89
2019-03-25T21:24:48.514Z,102460.05
2019-03-25T21:28:55.068Z,102479.88
2019-03-25T21:33:01.835Z,102479.45
2019-03-25T21:37:10.468Z,102492.70
2019-03-25T21:41:19.615Z,102497.09
2019-03-25T21:45:26.178Z,102507.42
2019-03-25T21:49:32.490Z,102508.39
2019-03-25T21:53:38.706Z,102518.45
2019-03-25T21:57:45.056Z,102525.91
2019-03-25T22:01:51.347Z,102528.70
2019-03-25T22:05:57.923Z,102528.22
2019-03-25T22:10:04.400Z,102527.02
2019-03-25T22:14:11.016Z,102534.86
2019-03-25T22:18:17.299Z,102534.81
2019-03-25T22:22:23.534Z,102540.03
2019-03-25T22:26:29.875Z,102544.63
2019-03-25T22:30:36.087Z,102547.38
2019-03-25T22:34:42.437Z,102553.78
2019-03-25T22:38:49.123Z,102563.50
2019-03-25T22:42:55.814Z,102557.61
2019-03-25T22:47:02.204Z,102569.78
2019-03-25T22:51:08.532Z,102582.44
2019-03-25T22:55:16.877Z,102581.34
2019-03-25T22:59:23.229Z,102588.98
2019-03-25T23:03:39.011Z,102590.75
2019-03-25T23:07:37.856Z,102584.88
2019-03-25T23:11:44.454Z,102595.91
2019-03-25T23:15:50.810Z,102604.28
2019-03-25T23:19:57.114Z,102609.20
2019-03-25T23:24:03.462Z,102598.52
2019-03-25T23:28:11.217Z,102611.81
2019-03-25T23:32:17.567Z,102606.16
2019-03-25T23:36:23.987Z,102613.09
2019-03-25T23:40:30.700Z,102613.09
2019-03-25T23:44:37.086Z,102607.73
2019-03-25T23:48:43.696Z,102616.70
2019-03-25T23:52:50.118Z,102617.17
2019-03-25T23:56:56.457Z,102618.06
